Terminal Aerodrome Forecast
Issued by NWS

Home | Current Version | Previous Version | Text Only | Print | Product List | Glossary On
Versions: 1 2 3 4 5 6 7 8 9 10 11 12 13
000
FTUS46 KSEW 311720
TAFCLM
TAF
KCLM 311720Z 3118/0118 VRB04KT P6SM VCSH SCT025 BKN050 BKN120
     FM011000 09005KT P6SM BKN025 OVC050
     FM011500 09005KT P6SM -RA BKN025 OVC050=

USA.gov is the U.S. government's official web portal to all federal, state and local government web resources and services.